METAR Data
IDs: Format: Raw Decoded Include TAF

Data at: 1740 UTC 30 Oct 2020

METAR for:KSPB (Scappoose Ind Airpar, OR, US)
Text:KSPB 301653Z AUTO 31003KT 4SM -RA BR FEW003 OVC032 10/09 A3011 RMK AO2 SLP196 P0001 T01000089
Temperature: 10.0°C ( 50°F)
Dewpoint: 8.9°C ( 48°F) [RH = 93%]
Pressure (altimeter):30.11 inches Hg (1019.7 mb) [Sea level pressure: 1019.6 mb]
Winds:from the NW (310 degrees) at 3 MPH (3 knots; 1.5 m/s)
Visibility: 4 sm ( 6 km)
Ceiling:3200 feet AGL
Clouds: few clouds at 300 feet AGL, overcast cloud deck at 3200 feet AGL
Weather:-RA BR (light rain, mist)
QC Flag:automated observation with no human augmentation